Aviation Digital Data Service (ADDS)

Output produced by METARs form (1918 UTC 18 June 2019)
found at http://www.aviationweather.gov/metar/data/
 
TAF TXKF 181731Z 1818/1918 24009KT 9999 FEW014 SCT300 
     PROB40 
     TEMPO 1818/1913 3200 SHRA BKN014CB